sensor_id;sensor_type;location;lat;lon;timestamp;pressure;altitude;pressure_sealevel;temperature;humidity
21779;BME280;11050;52.222;20.916;2023-01-27T00:01:06;100547.09;;;2.95;82.59
21779;BME280;11050;52.222;20.916;2023-01-27T00:03:32;100538.53;;;2.98;82.29
21779;BME280;11050;52.222;20.916;2023-01-27T00:05:58;100535.19;;;2.96;82.73
21779;BME280;11050;52.222;20.916;2023-01-27T00:08:27;100535.16;;;2.89;82.76
21779;BME280;11050;52.222;20.916;2023-01-27T00:11:00;100532.56;;;2.81;83.19
21779;BME280;11050;52.222;20.916;2023-01-27T00:13:45;100535.72;;;2.85;83.39
21779;BME280;11050;52.222;20.916;2023-01-27T00:16:10;100529.50;;;2.84;83.10
21779;BME280;11050;52.222;20.916;2023-01-27T00:18:36;100535.72;;;2.85;83.71
21779;BME280;11050;52.222;20.916;2023-01-27T00:21:02;100538.72;;;2.90;84.47
21779;BME280;11050;52.222;20.916;2023-01-27T00:23:46;100540.38;;;2.91;84.09
21779;BME280;11050;52.222;20.916;2023-01-27T00:26:30;100538.28;;;2.86;83.73
21779;BME280;11050;52.222;20.916;2023-01-27T00:28:56;100539.69;;;2.82;83.44
21779;BME280;11050;52.222;20.916;2023-01-27T00:31:22;100550.38;;;2.90;84.24
21779;BME280;11050;52.222;20.916;2023-01-27T00:34:06;100547.66;;;2.90;83.37
21779;BME280;11050;52.222;20.916;2023-01-27T00:36:37;100552.06;;;2.92;83.56
21779;BME280;11050;52.222;20.916;2023-01-27T00:39:05;100542.44;;;2.89;83.56
21779;BME280;11050;52.222;20.916;2023-01-27T00:41:32;100542.44;;;2.89;83.75
21779;BME280;11050;52.222;20.916;2023-01-27T00:43:59;100536.34;;;2.80;84.10
21779;BME280;11050;52.222;20.916;2023-01-27T00:46:25;100543.22;;;2.83;84.53
21779;BME280;11050;52.222;20.916;2023-01-27T00:48:52;100547.44;;;2.85;84.44
21779;BME280;11050;52.222;20.916;2023-01-27T00:51:19;100556.22;;;2.87;83.68
21779;BME280;11050;52.222;20.916;2023-01-27T00:53:45;100550.78;;;2.87;84.41
21779;BME280;11050;52.222;20.916;2023-01-27T00:56:11;100553.94;;;2.91;83.37
21779;BME280;11050;52.222;20.916;2023-01-27T00:58:38;100553.72;;;2.86;82.71
21779;BME280;11050;52.222;20.916;2023-01-27T01:01:07;100547.63;;;2.84;84.18
21779;BME280;11050;52.222;20.916;2023-01-27T01:03:34;100546.78;;;2.83;83.46
21779;BME280;11050;52.222;20.916;2023-01-27T01:06:05;100556.44;;;2.86;84.05
21779;BME280;11050;52.222;20.916;2023-01-27T01:08:32;100551.63;;;2.88;83.59
21779;BME280;11050;52.222;20.916;2023-01-27T01:10:59;100553.09;;;2.90;84.31
21779;BME280;11050;52.222;20.916;2023-01-27T01:13:26;100552.91;;;2.92;83.79
21779;BME280;11050;52.222;20.916;2023-01-27T01:15:53;100558.34;;;2.92;83.37
21779;BME280;11050;52.222;20.916;2023-01-27T01:18:19;100540.78;;;2.88;83.69
21779;BME280;11050;52.222;20.916;2023-01-27T01:20:46;100551.03;;;2.92;83.29
21779;BME280;11050;52.222;20.916;2023-01-27T01:23:14;100548.91;;;2.88;82.88
21779;BME280;11050;52.222;20.916;2023-01-27T01:25:40;100554.56;;;2.86;83.21
21779;BME280;11050;52.222;20.916;2023-01-27T01:28:08;100549.31;;;2.85;83.26
21779;BME280;11050;52.222;20.916;2023-01-27T01:30:36;100547.44;;;2.85;83.43
21779;BME280;11050;52.222;20.916;2023-01-27T01:33:02;100552.41;;;2.82;82.45
21779;BME280;11050;52.222;20.916;2023-01-27T01:35:28;100550.72;;;2.81;83.05
21779;BME280;11050;52.222;20.916;2023-01-27T01:37:54;100556.16;;;2.81;82.58
21779;BME280;11050;52.222;20.916;2023-01-27T01:40:21;100554.50;;;2.80;82.90
21779;BME280;11050;52.222;20.916;2023-01-27T01:42:56;100551.13;;;2.78;83.22
21779;BME280;11050;52.222;20.916;2023-01-27T01:48:17;100551.13;;;2.78;83.19
21779;BME280;11050;52.222;20.916;2023-01-27T01:50:56;100557.16;;;2.73;82.55
21779;BME280;11050;52.222;20.916;2023-01-27T01:53:29;100551.13;;;2.78;82.04
21779;BME280;11050;52.222;20.916;2023-01-27T01:56:05;100550.94;;;2.79;81.91
21779;BME280;11050;52.222;20.916;2023-01-27T01:58:33;100545.47;;;2.73;83.04
21779;BME280;11050;52.222;20.916;2023-01-27T02:01:03;100557.00;;;2.81;83.32
21779;BME280;11050;52.222;20.916;2023-01-27T02:03:31;100557.00;;;2.81;83.10
21779;BME280;11050;52.222;20.916;2023-01-27T02:05:59;100551.38;;;2.83;82.44
21779;BME280;11050;52.222;20.916;2023-01-27T02:08:32;100554.94;;;2.83;83.25
21779;BME280;11050;52.222;20.916;2023-01-27T02:11:00;100550.34;;;2.84;83.47
21779;BME280;11050;52.222;20.916;2023-01-27T02:13:26;100552.41;;;2.82;82.61
21779;BME280;11050;52.222;20.916;2023-01-27T02:15:53;100535.25;;;2.75;81.92
21779;BME280;11050;52.222;20.916;2023-01-27T02:18:20;100539.78;;;2.68;81.58
21779;BME280;11050;52.222;20.916;2023-01-27T02:20:50;100558.63;;;2.76;81.97
21779;BME280;11050;52.222;20.916;2023-01-27T02:24:00;100557.63;;;2.77;81.76
21779;BME280;11050;52.222;20.916;2023-01-27T02:26:33;100550.06;;;2.72;80.95
21779;BME280;11050;52.222;20.916;2023-01-27T02:29:13;100543.97;;;2.70;81.73
21779;BME280;11050;52.222;20.916;2023-01-27T02:31:39;100552.69;;;2.66;80.82
21779;BME280;11050;52.222;20.916;2023-01-27T02:34:11;100556.47;;;2.65;81.45
21779;BME280;11050;52.222;20.916;2023-01-27T02:36:46;100552.53;;;2.67;81.02
21779;BME280;11050;52.222;20.916;2023-01-27T02:39:16;100554.25;;;2.75;81.11
21779;BME280;11050;52.222;20.916;2023-01-27T02:41:48;100555.91;;;2.76;81.28
21779;BME280;11050;52.222;20.916;2023-01-27T02:44:14;100550.91;;;2.73;81.11
21779;BME280;11050;52.222;20.916;2023-01-27T02:46:40;100545.03;;;2.69;81.88
21779;BME280;11050;52.222;20.916;2023-01-27T02:49:06;100545.63;;;2.65;81.58
21779;BME280;11050;52.222;20.916;2023-01-27T02:51:32;100551.47;;;2.68;80.82
21779;BME280;11050;52.222;20.916;2023-01-27T02:53:58;100555.28;;;2.74;80.43
21779;BME280;11050;52.222;20.916;2023-01-27T02:56:24;100558.63;;;2.76;81.14
21779;BME280;11050;52.222;20.916;2023-01-27T02:58:50;100552.19;;;2.77;80.91
21779;BME280;11050;52.222;20.916;2023-01-27T03:01:16;100552.19;;;2.77;80.25
21779;BME280;11050;52.222;20.916;2023-01-27T03:03:42;100559.91;;;2.80;80.66
21779;BME280;11050;52.222;20.916;2023-01-27T03:06:15;100558.88;;;2.81;80.54
21779;BME280;11050;52.222;20.916;2023-01-27T03:08:41;100559.91;;;2.80;80.50
21779;BME280;11050;52.222;20.916;2023-01-27T03:11:08;100559.47;;;2.76;80.29
21779;BME280;11050;52.222;20.916;2023-01-27T03:13:35;100560.31;;;2.77;80.51
21779;BME280;11050;52.222;20.916;2023-01-27T03:16:05;100556.34;;;2.79;79.57
21779;BME280;11050;52.222;20.916;2023-01-27T03:18:51;100554.69;;;2.78;79.90
21779;BME280;11050;52.222;20.916;2023-01-27T03:21:19;100551.53;;;2.75;79.71
21779;BME280;11050;52.222;20.916;2023-01-27T03:23:45;100560.97;;;2.79;79.00
21779;BME280;11050;52.222;20.916;2023-01-27T03:26:13;100563.69;;;2.79;80.09
21779;BME280;11050;52.222;20.916;2023-01-27T03:28:39;100565.34;;;2.80;80.19
21779;BME280;11050;52.222;20.916;2023-01-27T03:31:09;100562.84;;;2.78;80.11
21779;BME280;11050;52.222;20.916;2023-01-27T03:33:45;100563.84;;;2.77;79.95
21779;BME280;11050;52.222;20.916;2023-01-27T03:36:12;100564.19;;;2.68;78.98
21779;BME280;11050;52.222;20.916;2023-01-27T03:38:57;100562.94;;;2.64;80.08
21779;BME280;11050;52.222;20.916;2023-01-27T03:41:41;100567.31;;;2.65;80.41
21779;BME280;11050;52.222;20.916;2023-01-27T03:44:25;100558.78;;;2.68;80.85
21779;BME280;11050;52.222;20.916;2023-01-27T03:47:09;100561.09;;;2.71;80.16
21779;BME280;11050;52.222;20.916;2023-01-27T03:49:35;100560.66;;;2.67;79.98
21779;BME280;11050;52.222;20.916;2023-01-27T03:52:01;100561.31;;;2.69;80.24
21779;BME280;11050;52.222;20.916;2023-01-27T03:54:27;100563.63;;;2.72;80.99
21779;BME280;11050;52.222;20.916;2023-01-27T03:56:53;100564.47;;;2.73;79.87
21779;BME280;11050;52.222;20.916;2023-01-27T03:59:19;100571.19;;;2.77;79.86
21779;BME280;11050;52.222;20.916;2023-01-27T04:01:44;100580.97;;;2.78;80.25
21779;BME280;11050;52.222;20.916;2023-01-27T04:04:10;100581.63;;;2.80;79.57
21779;BME280;11050;52.222;20.916;2023-01-27T04:06:55;100580.41;;;2.82;80.03
21779;BME280;11050;52.222;20.916;2023-01-27T04:09:31;100589.19;;;2.84;79.11
21779;BME280;11050;52.222;20.916;2023-01-27T04:12:01;100584.41;;;2.86;79.02
21779;BME280;11050;52.222;20.916;2023-01-27T04:14:38;100581.28;;;2.89;79.87
21779;BME280;11050;52.222;20.916;2023-01-27T04:17:15;100580.44;;;2.89;79.49
21779;BME280;11050;52.222;20.916;2023-01-27T04:19:42;100586.91;;;2.88;79.22
21779;BME280;11050;52.222;20.916;2023-01-27T04:22:10;100584.22;;;2.88;79.23
21779;BME280;11050;52.222;20.916;2023-01-27T04:24:37;100593.63;;;2.92;79.09
21779;BME280;11050;52.222;20.916;2023-01-27T04:27:10;100582.13;;;2.90;78.95
21779;BME280;11050;52.222;20.916;2023-01-27T04:29:39;100584.22;;;2.88;79.07
21779;BME280;11050;52.222;20.916;2023-01-27T04:32:08;100589.19;;;2.84;79.63
21779;BME280;11050;52.222;20.916;2023-01-27T04:34:35;100583.94;;;2.83;79.38
21779;BME280;11050;52.222;20.916;2023-01-27T04:37:02;100583.25;;;2.74;79.91
21779;BME280;11050;52.222;20.916;2023-01-27T04:39:29;100577.06;;;2.80;79.96
21779;BME280;11050;52.222;20.916;2023-01-27T04:41:56;100579.75;;;2.80;79.51
21779;BME280;11050;52.222;20.916;2023-01-27T04:44:22;100581.63;;;2.80;79.13
21779;BME280;11050;52.222;20.916;2023-01-27T04:46:49;100579.31;;;2.77;80.12
21779;BME280;11050;52.222;20.916;2023-01-27T04:49:15;100580.75;;;2.73;79.03
21779;BME280;11050;52.222;20.916;2023-01-27T04:51:41;100580.94;;;2.71;80.00
21779;BME280;11050;52.222;20.916;2023-01-27T04:54:07;100581.13;;;2.70;79.94
21779;BME280;11050;52.222;20.916;2023-01-27T04:56:40;100591.63;;;2.79;78.70
21779;BME280;11050;52.222;20.916;2023-01-27T04:59:11;100588.34;;;2.84;78.23
21779;BME280;11050;52.222;20.916;2023-01-27T05:01:37;100592.34;;;2.88;78.61
21779;BME280;11050;52.222;20.916;2023-01-27T05:04:03;100601.94;;;2.90;78.27
21779;BME280;11050;52.222;20.916;2023-01-27T05:06:29;100604.88;;;2.89;78.75
21779;BME280;11050;52.222;20.916;2023-01-27T05:08:55;100606.72;;;2.88;78.84
21779;BME280;11050;52.222;20.916;2023-01-27T05:11:21;100601.50;;;2.87;78.12
21779;BME280;11050;52.222;20.916;2023-01-27T05:13:47;100600.22;;;2.83;77.79
21779;BME280;11050;52.222;20.916;2023-01-27T05:16:19;100613.16;;;2.81;77.70
21779;BME280;11050;52.222;20.916;2023-01-27T05:18:47;100606.84;;;2.74;78.65
21779;BME280;11050;52.222;20.916;2023-01-27T05:21:17;100615.25;;;2.79;79.22
21779;BME280;11050;52.222;20.916;2023-01-27T05:23:44;100600.38;;;2.75;78.24
21779;BME280;11050;52.222;20.916;2023-01-27T05:26:22;100611.25;;;2.75;78.49
21779;BME280;11050;52.222;20.916;2023-01-27T05:28:50;100617.97;;;2.79;79.10
21779;BME280;11050;52.222;20.916;2023-01-27T05:31:28;100618.78;;;2.79;78.94
21779;BME280;11050;52.222;20.916;2023-01-27T05:33:57;100620.25;;;2.82;79.31
21779;BME280;11050;52.222;20.916;2023-01-27T05:36:24;100625.94;;;2.87;78.70
21779;BME280;11050;52.222;20.916;2023-01-27T05:38:51;100614.69;;;2.90;78.21
21779;BME280;11050;52.222;20.916;2023-01-27T05:41:19;100620.78;;;2.92;78.59
21779;BME280;11050;52.222;20.916;2023-01-27T05:43:49;100624.50;;;2.91;78.47
21779;BME280;11050;52.222;20.916;2023-01-27T05:46:18;100627.22;;;2.91;78.02
21779;BME280;11050;52.222;20.916;2023-01-27T05:48:51;100635.38;;;2.91;77.16
21779;BME280;11050;52.222;20.916;2023-01-27T05:51:20;100631.16;;;2.88;76.80
21779;BME280;11050;52.222;20.916;2023-01-27T05:53:46;100629.06;;;2.84;76.75
21779;BME280;11050;52.222;20.916;2023-01-27T05:56:15;100629.44;;;2.81;76.68
21779;BME280;11050;52.222;20.916;2023-01-27T05:58:42;100623.56;;;2.77;77.62
21779;BME280;11050;52.222;20.916;2023-01-27T06:01:09;100626.47;;;2.76;78.03
21779;BME280;11050;52.222;20.916;2023-01-27T06:03:36;100629.19;;;2.76;77.05
21779;BME280;11050;52.222;20.916;2023-01-27T06:06:04;100638.81;;;2.78;77.18
21779;BME280;11050;52.222;20.916;2023-01-27T06:08:30;100640.88;;;2.76;77.85
21779;BME280;11050;52.222;20.916;2023-01-27T06:10:57;100643.41;;;2.78;77.41
21779;BME280;11050;52.222;20.916;2023-01-27T06:13:23;100645.09;;;2.79;77.70
21779;BME280;11050;52.222;20.916;2023-01-27T06:15:50;100653.03;;;2.80;78.12
21779;BME280;11050;52.222;20.916;2023-01-27T06:18:17;100644.38;;;2.70;78.45
21779;BME280;11050;52.222;20.916;2023-01-27T06:20:44;100654.25;;;2.78;79.87
21779;BME280;11050;52.222;20.916;2023-01-27T06:23:13;100669.69;;;2.77;79.13
21779;BME280;11050;52.222;20.916;2023-01-27T06:25:43;100658.38;;;2.74;80.32
21779;BME280;11050;52.222;20.916;2023-01-27T06:28:10;100663.81;;;2.74;80.46
21779;BME280;11050;52.222;20.916;2023-01-27T06:30:38;100664.66;;;2.74;80.87
21779;BME280;11050;52.222;20.916;2023-01-27T06:33:05;100671.31;;;2.72;80.67
21779;BME280;11050;52.222;20.916;2023-01-27T06:35:33;100677.00;;;2.77;80.64
21779;BME280;11050;52.222;20.916;2023-01-27T06:38:00;100671.31;;;2.72;81.13
21779;BME280;11050;52.222;20.916;2023-01-27T06:40:27;100670.66;;;2.70;82.40
21779;BME280;11050;52.222;20.916;2023-01-27T06:42:53;100681.25;;;2.65;81.27
21779;BME280;11050;52.222;20.916;2023-01-27T06:45:19;100680.81;;;2.61;81.39
21779;BME280;11050;52.222;20.916;2023-01-27T06:47:45;100675.31;;;2.55;81.48
21779;BME280;11050;52.222;20.916;2023-01-27T06:50:11;100681.00;;;2.60;82.22
21779;BME280;11050;52.222;20.916;2023-01-27T06:52:37;100684.53;;;2.60;83.14
21779;BME280;11050;52.222;20.916;2023-01-27T06:55:04;100679.50;;;2.57;83.07
21779;BME280;11050;52.222;20.916;2023-01-27T06:57:30;100670.72;;;2.55;84.51
21779;BME280;11050;52.222;20.916;2023-01-27T06:59:55;100680.38;;;2.58;84.54
21779;BME280;11050;52.222;20.916;2023-01-27T07:02:21;100681.66;;;2.62;84.18
21779;BME280;11050;52.222;20.916;2023-01-27T07:04:47;100678.00;;;2.55;85.23
21779;BME280;11050;52.222;20.916;2023-01-27T07:07:13;100682.88;;;2.59;85.75
21779;BME280;11050;52.222;20.916;2023-01-27T07:09:38;100674.97;;;2.64;85.28
21779;BME280;11050;52.222;20.916;2023-01-27T07:12:04;100678.34;;;2.66;85.90
21779;BME280;11050;52.222;20.916;2023-01-27T07:14:30;100689.47;;;2.71;85.75
21779;BME280;11050;52.222;20.916;2023-01-27T07:16:55;100687.66;;;2.78;87.51
21779;BME280;11050;52.222;20.916;2023-01-27T07:19:21;100680.81;;;2.82;87.03
21779;BME280;11050;52.222;20.916;2023-01-27T07:21:47;100680.00;;;2.88;87.49
21779;BME280;11050;52.222;20.916;2023-01-27T07:24:13;100681.13;;;2.94;87.14
21779;BME280;11050;52.222;20.916;2023-01-27T07:26:38;100686.28;;;3.10;86.66
21779;BME280;11050;52.222;20.916;2023-01-27T07:29:04;100686.56;;;3.22;86.62
21779;BME280;11050;52.222;20.916;2023-01-27T07:31:32;100687.25;;;3.30;86.57
21779;BME280;11050;52.222;20.916;2023-01-27T07:33:58;100692.78;;;3.43;85.75
21779;BME280;11050;52.222;20.916;2023-01-27T07:36:24;100688.69;;;3.54;85.66
21779;BME280;11050;52.222;20.916;2023-01-27T07:38:50;100678.25;;;3.57;84.29
21779;BME280;11050;52.222;20.916;2023-01-27T07:41:16;100686.91;;;3.67;83.93
21779;BME280;11050;52.222;20.916;2023-01-27T07:43:42;100695.09;;;3.74;84.42
21779;BME280;11050;52.222;20.916;2023-01-27T07:46:08;100686.34;;;3.78;83.51
21779;BME280;11050;52.222;20.916;2023-01-27T07:48:33;100698.06;;;3.85;82.76
21779;BME280;11050;52.222;20.916;2023-01-27T07:50:59;100690.34;;;3.89;82.76
21779;BME280;11050;52.222;20.916;2023-01-27T07:53:25;100697.91;;;3.94;81.68
21779;BME280;11050;52.222;20.916;2023-01-27T07:55:51;100697.72;;;3.95;80.82
21779;BME280;11050;52.222;20.916;2023-01-27T07:58:16;100695.63;;;3.97;80.48
21779;BME280;11050;52.222;20.916;2023-01-27T08:00:42;100702.34;;;4.01;79.63
21779;BME280;11050;52.222;20.916;2023-01-27T08:03:30;100692.75;;;4.05;79.21
21779;BME280;11050;52.222;20.916;2023-01-27T08:05:56;100689.84;;;4.13;77.72
21779;BME280;11050;52.222;20.916;2023-01-27T08:08:22;100690.53;;;4.22;76.76
21779;BME280;11050;52.222;20.916;2023-01-27T08:10:48;100703.75;;;4.31;77.65
21779;BME280;11050;52.222;20.916;2023-01-27T08:13:16;100708.16;;;4.45;76.51
21779;BME280;11050;52.222;20.916;2023-01-27T08:15:42;100697.09;;;4.53;75.88
21779;BME280;11050;52.222;20.916;2023-01-27T08:18:08;100697.94;;;4.60;74.78
21779;BME280;11050;52.222;20.916;2023-01-27T08:20:35;100695.22;;;4.60;74.22
21779;BME280;11050;52.222;20.916;2023-01-27T08:23:01;100696.94;;;4.68;74.38
21779;BME280;11050;52.222;20.916;2023-01-27T08:25:26;100703.25;;;4.75;72.33
21779;BME280;11050;52.222;20.916;2023-01-27T08:27:54;100704.31;;;4.80;71.94
21779;BME280;11050;52.222;20.916;2023-01-27T08:30:21;100713.50;;;4.79;72.02
21779;BME280;11050;52.222;20.916;2023-01-27T08:32:47;100702.22;;;4.89;72.53
21779;BME280;11050;52.222;20.916;2023-01-27T08:35:13;100712.69;;;4.99;71.52
21779;BME280;11050;52.222;20.916;2023-01-27T08:37:39;100716.50;;;5.11;71.41
21779;BME280;11050;52.222;20.916;2023-01-27T08:40:05;100714.81;;;5.23;70.98
21779;BME280;11050;52.222;20.916;2023-01-27T08:42:31;100715.66;;;5.36;70.77
21779;BME280;11050;52.222;20.916;2023-01-27T08:44:57;100718.78;;;5.46;70.32
21779;BME280;11050;52.222;20.916;2023-01-27T08:47:24;100719.22;;;5.50;69.20
21779;BME280;11050;52.222;20.916;2023-01-27T08:49:50;100721.91;;;5.56;69.00
21779;BME280;11050;52.222;20.916;2023-01-27T08:52:16;100721.88;;;5.69;68.59
21779;BME280;11050;52.222;20.916;2023-01-27T08:54:42;100725.69;;;5.68;67.09
21779;BME280;11050;52.222;20.916;2023-01-27T08:57:07;100723.41;;;5.65;67.45
21779;BME280;11050;52.222;20.916;2023-01-27T08:59:33;100735.75;;;5.61;66.10
21779;BME280;11050;52.222;20.916;2023-01-27T09:01:59;100729.47;;;5.54;66.10
21779;BME280;11050;52.222;20.916;2023-01-27T09:04:24;100728.22;;;5.50;65.22
21779;BME280;11050;52.222;20.916;2023-01-27T09:06:50;100731.78;;;5.44;66.05
21779;BME280;11050;52.222;20.916;2023-01-27T09:09:18;100733.25;;;5.40;65.68
21779;BME280;11050;52.222;20.916;2023-01-27T09:11:44;100737.22;;;5.38;65.06
21779;BME280;11050;52.222;20.916;2023-01-27T09:14:11;100734.09;;;5.41;65.08
21779;BME280;11050;52.222;20.916;2023-01-27T09:16:38;100735.34;;;5.51;65.33
21779;BME280;11050;52.222;20.916;2023-01-27T09:19:04;100735.75;;;5.61;63.86
21779;BME280;11050;52.222;20.916;2023-01-27T09:21:30;100739.72;;;5.78;63.98
21779;BME280;11050;52.222;20.916;2023-01-27T09:23:56;100730.09;;;5.83;63.48
21779;BME280;11050;52.222;20.916;2023-01-27T09:26:22;100728.81;;;5.85;63.02
21779;BME280;11050;52.222;20.916;2023-01-27T09:28:48;100728.78;;;5.98;62.26
21779;BME280;11050;52.222;20.916;2023-01-27T09:31:14;100728.56;;;6.06;61.75
21779;BME280;11050;52.222;20.916;2023-01-27T09:33:39;100723.50;;;6.16;61.32
21779;BME280;11050;52.222;20.916;2023-01-27T09:36:10;100718.59;;;6.38;60.12
21779;BME280;11050;52.222;20.916;2023-01-27T09:38:55;100716.19;;;6.61;60.34
21779;BME280;11050;52.222;20.916;2023-01-27T09:47:51;100733.59;;;6.98;58.49
21779;BME280;11050;52.222;20.916;2023-01-27T09:50:57;100729.34;;;7.08;57.78
21779;BME280;11050;52.222;20.916;2023-01-27T09:53:37;100727.53;;;7.20;56.62
21779;BME280;11050;52.222;20.916;2023-01-27T09:56:42;100731.19;;;7.14;57.38
21779;BME280;11050;52.222;20.916;2023-01-27T09:59:42;100727.75;;;7.25;57.15
21779;BME280;11050;52.222;20.916;2023-01-27T10:08:19;100720.59;;;6.93;56.02
21779;BME280;11050;52.222;20.916;2023-01-27T10:14:08;100731.84;;;6.79;56.36
21779;BME280;11050;52.222;20.916;2023-01-27T10:23:38;100732.81;;;6.53;57.74
21779;BME280;11050;52.222;20.916;2023-01-27T10:26:39;100739.72;;;6.55;57.69
21779;BME280;11050;52.222;20.916;2023-01-27T10:29:15;100735.53;;;6.53;58.34
21779;BME280;11050;52.222;20.916;2023-01-27T10:32:05;100744.59;;;6.47;58.14
21779;BME280;11050;52.222;20.916;2023-01-27T10:34:48;100749.50;;;6.25;59.32
21779;BME280;11050;52.222;20.916;2023-01-27T10:37:29;100750.19;;;6.14;59.42
21779;BME280;11050;52.222;20.916;2023-01-27T10:40:23;100750.41;;;6.00;59.04
21779;BME280;11050;52.222;20.916;2023-01-27T10:43:03;100740.38;;;5.87;59.90
21779;BME280;11050;52.222;20.916;2023-01-27T10:48:47;100747.31;;;5.63;60.53
21779;BME280;11050;52.222;20.916;2023-01-27T10:51:27;100758.00;;;5.52;61.18
21779;BME280;11050;52.222;20.916;2023-01-27T10:54:08;100760.09;;;5.50;61.56
21779;BME280;11050;52.222;20.916;2023-01-27T10:56:48;100752.97;;;5.42;61.20
21779;BME280;11050;52.222;20.916;2023-01-27T11:02:28;100771.00;;;5.37;62.44
21779;BME280;11050;52.222;20.916;2023-01-27T11:05:00;100765.09;;;5.27;62.05
21779;BME280;11050;52.222;20.916;2023-01-27T11:07:27;100758.38;;;5.23;62.68
21779;BME280;11050;52.222;20.916;2023-01-27T11:10:06;100747.28;;;5.18;64.22
21779;BME280;11050;52.222;20.916;2023-01-27T11:12:46;100747.50;;;5.16;64.80
21779;BME280;11050;52.222;20.916;2023-01-27T11:15:26;100741.00;;;5.11;64.26
21779;BME280;11050;52.222;20.916;2023-01-27T11:18:26;100738.88;;;5.06;64.88
21779;BME280;11050;52.222;20.916;2023-01-27T11:20:58;100734.91;;;5.02;65.94
21779;BME280;11050;52.222;20.916;2023-01-27T11:23:41;100737.22;;;5.05;65.82
21779;BME280;11050;52.222;20.916;2023-01-27T11:26:30;100735.09;;;4.94;66.54
21779;BME280;11050;52.222;20.916;2023-01-27T11:35:15;100717.28;;;4.78;67.81
21779;BME280;11050;52.222;20.916;2023-01-27T11:37:51;100721.44;;;4.81;69.55
21779;BME280;11050;52.222;20.916;2023-01-27T11:40:32;100722.53;;;4.93;68.44
21779;BME280;11050;52.222;20.916;2023-01-27T11:42:59;100724.66;;;4.98;68.39
21779;BME280;11050;52.222;20.916;2023-01-27T11:45:26;100722.75;;;4.98;67.77
21779;BME280;11050;52.222;20.916;2023-01-27T11:47:58;100713.94;;;4.90;68.76
21779;BME280;11050;52.222;20.916;2023-01-27T11:50:29;100720.66;;;4.94;68.98
21779;BME280;11050;52.222;20.916;2023-01-27T11:56:01;100726.28;;;4.92;69.00
21779;BME280;11050;52.222;20.916;2023-01-27T11:59:07;100728.19;;;4.92;69.40
21779;BME280;11050;52.222;20.916;2023-01-27T12:07:16;100722.34;;;5.14;70.14
21779;BME280;11050;52.222;20.916;2023-01-27T12:09:43;100720.47;;;5.08;70.35
21779;BME280;11050;52.222;20.916;2023-01-27T12:12:25;100725.50;;;5.05;70.44
21779;BME280;11050;52.222;20.916;2023-01-27T12:14:57;100725.88;;;5.02;70.75
21779;BME280;11050;52.222;20.916;2023-01-27T12:23:20;100718.38;;;5.10;71.58
21779;BME280;11050;52.222;20.916;2023-01-27T12:25:55;100718.97;;;5.19;72.52
21779;BME280;11050;52.222;20.916;2023-01-27T12:28:32;100713.97;;;5.29;72.15
21779;BME280;11050;52.222;20.916;2023-01-27T12:31:08;100732.41;;;5.40;70.93
21779;BME280;11050;52.222;20.916;2023-01-27T12:33:39;100715.66;;;5.30;69.04
21779;BME280;11050;52.222;20.916;2023-01-27T12:36:17;100725.28;;;5.32;68.76
21779;BME280;11050;52.222;20.916;2023-01-27T12:38:56;100723.41;;;5.33;67.92
21779;BME280;11050;52.222;20.916;2023-01-27T12:41:32;100719.22;;;5.37;69.72
21779;BME280;11050;52.222;20.916;2023-01-27T12:44:40;100717.31;;;5.31;69.82
21779;BME280;11050;52.222;20.916;2023-01-27T12:47:25;100714.59;;;5.24;71.07
21779;BME280;11050;52.222;20.916;2023-01-27T12:50:20;100725.69;;;5.36;71.74
21779;BME280;11050;52.222;20.916;2023-01-27T13:06:43;100726.75;;;5.28;73.96
21779;BME280;11050;52.222;20.916;2023-01-27T13:12:00;100723.38;;;5.13;75.99
21779;BME280;11050;52.222;20.916;2023-01-27T13:14:29;100728.00;;;5.06;77.17
21779;BME280;11050;52.222;20.916;2023-01-27T13:16:57;100721.47;;;4.94;78.50
21779;BME280;11050;52.222;20.916;2023-01-27T13:19:43;100715.16;;;4.74;79.72
21779;BME280;11050;52.222;20.916;2023-01-27T13:22:19;100730.22;;;4.63;81.93
21779;BME280;11050;52.222;20.916;2023-01-27T13:24:50;100728.31;;;4.57;83.19
21779;BME280;11050;52.222;20.916;2023-01-27T13:27:20;100719.50;;;4.62;83.07
21779;BME280;11050;52.222;20.916;2023-01-27T13:30:11;100727.06;;;4.66;83.58
21779;BME280;11050;52.222;20.916;2023-01-27T13:32:42;100731.50;;;4.67;84.03
21779;BME280;11050;52.222;20.916;2023-01-27T13:35:25;100733.59;;;4.65;84.71
21779;BME280;11050;52.222;20.916;2023-01-27T13:38:18;100731.88;;;4.58;84.11
21779;BME280;11050;52.222;20.916;2023-01-27T13:40:47;100731.88;;;4.58;84.67
21779;BME280;11050;52.222;20.916;2023-01-27T13:43:20;100729.38;;;4.69;85.16
21779;BME280;11050;52.222;20.916;2023-01-27T13:46:16;100734.84;;;4.76;84.86
21779;BME280;11050;52.222;20.916;2023-01-27T13:51:22;100735.06;;;4.74;84.86
21779;BME280;11050;52.222;20.916;2023-01-27T13:53:58;100739.06;;;4.78;85.01
21779;BME280;11050;52.222;20.916;2023-01-27T13:59:39;100736.50;;;4.70;86.79
21779;BME280;11050;52.222;20.916;2023-01-27T14:11:10;100744.19;;;4.47;88.13
21779;BME280;11050;52.222;20.916;2023-01-27T14:16:53;100750.00;;;4.38;89.83
21779;BME280;11050;52.222;20.916;2023-01-27T14:22:14;100756.50;;;4.37;90.41
21779;BME280;11050;52.222;20.916;2023-01-27T14:24:55;100748.94;;;4.32;90.64
21779;BME280;11050;52.222;20.916;2023-01-27T14:27:47;100749.94;;;4.25;91.33
21779;BME280;11050;52.222;20.916;2023-01-27T14:30:31;100753.94;;;4.22;91.99
21779;BME280;11050;52.222;20.916;2023-01-27T14:36:31;100753.50;;;4.25;92.42
21779;BME280;11050;52.222;20.916;2023-01-27T14:42:36;100751.78;;;4.18;92.66
21779;BME280;11050;52.222;20.916;2023-01-27T14:53:42;100747.25;;;3.91;94.68
21779;BME280;11050;52.222;20.916;2023-01-27T14:59:28;100751.84;;;3.90;94.60